createdAt,value
2022-09-28T00:01:07.683Z,6.70
2022-09-28T00:03:35.922Z,7.43
2022-09-28T00:06:05.057Z,6.80
2022-09-28T00:08:33.133Z,6.73
2022-09-28T00:11:00.811Z,6.67
2022-09-28T00:13:29.598Z,6.90
2022-09-28T00:16:04.201Z,7.30
2022-09-28T00:18:32.705Z,6.40
2022-09-28T00:21:05.714Z,7.23
2022-09-28T00:23:34.457Z,7.57
2022-09-28T00:26:05.740Z,6.93
2022-09-28T00:28:33.817Z,7.53
2022-09-28T00:31:03.081Z,6.90
2022-09-28T00:33:30.845Z,7.07
2022-09-28T00:35:59.233Z,7.13
2022-09-28T00:38:28.648Z,7.63
2022-09-28T00:40:56.754Z,7.50
2022-09-28T00:43:25.442Z,7.60
2022-09-28T00:45:59.920Z,7.70
2022-09-28T00:48:33.375Z,7.77
2022-09-28T00:51:04.677Z,7.97
2022-09-28T00:53:36.523Z,7.57
2022-09-28T00:56:09.170Z,8.23
2022-09-28T00:58:41.951Z,8.03
2022-09-28T01:01:09.791Z,8.83
2022-09-28T01:03:41.333Z,8.83
2022-09-28T01:06:10.469Z,8.23
2022-09-28T01:08:40.442Z,8.13
2022-09-28T01:11:08.262Z,8.40
2022-09-28T01:13:36.067Z,7.60
2022-09-28T01:16:13.158Z,8.67
2022-09-28T01:18:53.710Z,8.87
2022-09-28T01:21:23.267Z,8.17
2022-09-28T01:24:36.045Z,7.80
2022-09-28T01:27:13.977Z,8.73
2022-09-28T01:29:58.070Z,9.73
2022-09-28T01:32:36.668Z,10.10
2022-09-28T01:35:08.844Z,9.03
2022-09-28T01:37:43.449Z,9.53
2022-09-28T01:40:13.190Z,9.00
2022-09-28T01:42:46.882Z,9.13
2022-09-28T01:45:21.644Z,9.60
2022-09-28T01:47:51.152Z,9.40
2022-09-28T01:50:23.719Z,9.80
2022-09-28T01:52:55.745Z,9.80
2022-09-28T01:55:30.823Z,9.57
2022-09-28T01:58:04.390Z,9.93
2022-09-28T02:00:33.512Z,9.80
2022-09-28T02:03:06.830Z,10.37
2022-09-28T02:05:36.800Z,10.20
2022-09-28T02:08:10.059Z,10.17
2022-09-28T02:10:43.501Z,9.83
2022-09-28T02:13:17.377Z,9.73
2022-09-28T02:15:52.681Z,10.07
2022-09-28T02:18:20.530Z,10.30
2022-09-28T02:20:55.150Z,10.53
2022-09-28T02:23:24.487Z,9.53
2022-09-28T02:25:59.906Z,9.83
2022-09-28T02:28:29.182Z,10.13
2022-09-28T02:30:57.086Z,10.23
2022-09-28T02:33:30.321Z,10.40
2022-09-28T02:35:59.460Z,10.27
2022-09-28T02:38:27.078Z,10.50
2022-09-28T02:41:02.585Z,10.47
2022-09-28T02:43:41.186Z,10.73
2022-09-28T02:46:18.622Z,11.20
2022-09-28T02:49:17.496Z,10.70
2022-09-28T02:51:59.477Z,12.50
2022-09-28T02:54:57.472Z,12.47
2022-09-28T02:57:36.995Z,12.90
2022-09-28T03:00:10.200Z,12.30
2022-09-28T03:02:48.775Z,13.13
2022-09-28T03:05:20.505Z,12.90
2022-09-28T03:07:58.068Z,12.40
2022-09-28T03:10:31.233Z,12.23
2022-09-28T03:12:59.823Z,11.97
2022-09-28T03:15:30.536Z,13.10
2022-09-28T03:17:58.849Z,12.67
2022-09-28T03:20:27.433Z,12.30
2022-09-28T03:23:20.169Z,11.97
2022-09-28T03:25:43.263Z,12.80
2022-09-28T03:28:10.922Z,12.03
2022-09-28T03:30:40.162Z,10.93
2022-09-28T03:33:07.836Z,11.77
2022-09-28T03:35:35.824Z,10.97
2022-09-28T03:38:03.536Z,11.40
2022-09-28T03:40:31.239Z,10.87
2022-09-28T03:42:59.947Z,12.33
2022-09-28T03:45:27.771Z,10.97
2022-09-28T03:47:56.899Z,10.27
2022-09-28T03:50:24.670Z,10.00
2022-09-28T03:52:52.454Z,10.27
2022-09-28T03:55:20.159Z,10.43
2022-09-28T03:57:54.542Z,10.17
2022-09-28T04:00:23.040Z,8.33
2022-09-28T04:02:50.819Z,7.90
2022-09-28T04:05:19.850Z,8.83
2022-09-28T04:07:47.590Z,8.73
2022-09-28T04:10:15.244Z,9.53
2022-09-28T04:12:42.916Z,9.83
2022-09-28T04:15:11.422Z,9.97
2022-09-28T04:17:40.343Z,9.77
2022-09-28T04:20:09.000Z,11.27
2022-09-28T04:22:38.324Z,11.07
2022-09-28T04:25:06.853Z,12.13
2022-09-28T04:27:48.532Z,12.97
2022-09-28T04:30:16.896Z,11.23
2022-09-28T04:32:44.601Z,10.80
2022-09-28T04:35:13.463Z,11.90
2022-09-28T04:37:42.659Z,11.97
2022-09-28T04:40:11.262Z,12.50
2022-09-28T04:42:38.935Z,12.80
2022-09-28T04:45:08.054Z,12.43
2022-09-28T04:47:35.815Z,12.27
2022-09-28T04:50:03.481Z,12.47
2022-09-28T04:52:31.172Z,12.87
2022-09-28T04:55:00.424Z,14.30
2022-09-28T04:57:28.082Z,12.23
2022-09-28T04:59:55.809Z,12.10
2022-09-28T05:02:24.706Z,13.37
2022-09-28T05:04:53.368Z,12.37
2022-09-28T05:07:21.044Z,11.83
2022-09-28T05:09:48.716Z,14.10
2022-09-28T05:12:17.962Z,15.13
2022-09-28T05:14:47.785Z,12.57
2022-09-28T05:17:15.660Z,14.43
2022-09-28T05:19:43.431Z,13.57
2022-09-28T05:22:14.750Z,12.13
2022-09-28T05:24:42.815Z,13.50
2022-09-28T05:27:10.543Z,12.00
2022-09-28T05:29:39.574Z,12.57
2022-09-28T05:32:07.351Z,12.80
2022-09-28T05:34:35.101Z,12.67
2022-09-28T05:37:02.810Z,12.20
2022-09-28T05:39:30.491Z,12.13
2022-09-28T05:41:58.782Z,11.87
2022-09-28T05:44:26.500Z,12.23
2022-09-28T05:46:55.554Z,12.63
2022-09-28T05:49:23.396Z,11.20
2022-09-28T05:51:51.105Z,12.70
2022-09-28T05:54:18.880Z,10.57
2022-09-28T05:56:46.683Z,12.17
2022-09-28T05:59:14.507Z,12.60
2022-09-28T06:01:42.314Z,12.47
2022-09-28T06:04:11.478Z,12.87
2022-09-28T06:06:39.339Z,12.40
2022-09-28T06:09:07.070Z,12.83
2022-09-28T06:11:34.776Z,12.27
2022-09-28T06:14:02.555Z,12.67
2022-09-28T06:16:30.661Z,11.37
2022-09-28T06:18:58.431Z,12.63
2022-09-28T06:21:27.599Z,11.87
2022-09-28T06:23:55.290Z,13.40
2022-09-28T06:26:23.045Z,11.97
2022-09-28T06:28:50.758Z,11.33
2022-09-28T06:31:19.814Z,12.20
2022-09-28T06:33:49.973Z,13.00
2022-09-28T06:36:18.217Z,12.43
2022-09-28T06:38:47.603Z,12.30
2022-09-28T06:41:15.851Z,11.77
2022-09-28T06:43:43.572Z,14.40
2022-09-28T06:46:11.479Z,16.80
2022-09-28T06:48:39.224Z,13.47
2022-09-28T06:51:07.520Z,13.97
2022-09-28T06:53:35.830Z,12.87
2022-09-28T06:56:04.961Z,13.43
2022-09-28T06:58:32.598Z,14.60
2022-09-28T07:01:00.484Z,13.53
2022-09-28T07:03:28.716Z,14.77
2022-09-28T07:05:57.348Z,13.20
2022-09-28T07:08:28.649Z,13.17
2022-09-28T07:10:57.158Z,14.67
2022-09-28T07:16:16.208Z,14.67
2022-09-28T07:18:43.894Z,13.77
2022-09-28T07:21:22.462Z,13.27
2022-09-28T07:23:54.277Z,13.63
2022-09-28T07:26:24.479Z,14.63
2022-09-28T07:28:55.802Z,15.33
2022-09-28T07:31:25.241Z,15.23
2022-09-28T07:33:54.051Z,13.97
2022-09-28T07:36:22.723Z,15.47
2022-09-28T07:38:50.745Z,14.37
2022-09-28T07:41:22.747Z,14.53
2022-09-28T07:43:50.883Z,16.37
2022-09-28T07:46:21.278Z,14.67
2022-09-28T07:48:49.585Z,14.03
2022-09-28T07:51:19.781Z,16.23
2022-09-28T07:53:48.076Z,17.10
2022-09-28T07:56:17.449Z,15.17
2022-09-28T07:58:45.151Z,15.00
2022-09-28T08:01:14.920Z,14.50
2022-09-28T08:03:47.170Z,15.13
2022-09-28T08:06:17.079Z,15.13
2022-09-28T08:08:45.247Z,14.37
2022-09-28T08:11:14.118Z,14.37
2022-09-28T08:13:42.006Z,14.43
2022-09-28T08:16:09.709Z,15.47
2022-09-28T08:18:37.678Z,14.33
2022-09-28T08:21:25.243Z,14.00
2022-09-28T08:23:53.179Z,14.73
2022-09-28T08:26:20.947Z,14.43
2022-09-28T08:28:48.585Z,13.40
2022-09-28T08:31:16.330Z,14.20
2022-09-28T08:33:44.039Z,14.50
2022-09-28T08:36:13.052Z,13.03
2022-09-28T08:38:43.504Z,14.30
2022-09-28T08:41:19.886Z,14.53
2022-09-28T08:44:06.918Z,15.07
2022-09-28T08:46:37.867Z,12.43
2022-09-28T08:49:24.995Z,14.27
2022-09-28T08:52:00.499Z,14.20
2022-09-28T08:54:38.947Z,14.30
2022-09-28T08:57:13.509Z,15.27
2022-09-28T08:59:49.237Z,16.03
2022-09-28T09:02:22.336Z,16.07
2022-09-28T09:04:51.941Z,14.80
2022-09-28T09:07:32.285Z,15.30
2022-09-28T09:10:11.566Z,14.30
2022-09-28T09:12:49.671Z,13.97
2022-09-28T09:15:35.288Z,14.07
2022-09-28T09:18:20.218Z,14.53
2022-09-28T09:20:53.327Z,13.53
2022-09-28T09:23:35.248Z,14.10
2022-09-28T09:26:15.271Z,14.10
2022-09-28T09:29:01.726Z,13.00
2022-09-28T09:31:43.115Z,14.63
2022-09-28T09:34:35.156Z,15.20
2022-09-28T09:37:23.285Z,13.60
2022-09-28T09:40:05.053Z,13.20
2022-09-28T09:42:49.057Z,12.50
2022-09-28T09:45:44.069Z,12.10
2022-09-28T09:48:19.014Z,13.27
2022-09-28T09:50:50.672Z,11.03
2022-09-28T09:53:25.379Z,10.70
2022-09-28T09:55:59.633Z,9.67
2022-09-28T09:58:31.446Z,6.67
2022-09-28T10:01:10.251Z,9.83
2022-09-28T10:03:44.309Z,12.93
2022-09-28T10:06:16.246Z,13.00
2022-09-28T10:08:50.032Z,12.13
2022-09-28T10:11:24.262Z,11.97
2022-09-28T10:13:52.012Z,11.97
2022-09-28T10:16:20.636Z,12.63
2022-09-28T10:18:49.749Z,12.50
2022-09-28T10:21:21.494Z,11.87
2022-09-28T10:23:56.106Z,10.77
2022-09-28T10:26:31.129Z,11.50
2022-09-28T10:29:02.973Z,16.13
2022-09-28T10:31:42.145Z,10.13
2022-09-28T10:34:14.213Z,9.33
2022-09-28T10:36:55.162Z,9.40
2022-09-28T10:39:34.296Z,8.00
2022-09-28T10:42:07.274Z,8.80
2022-09-28T10:44:39.471Z,8.60
2022-09-28T10:47:10.061Z,7.27
2022-09-28T10:49:47.012Z,7.57
2022-09-28T10:52:35.707Z,7.40
2022-09-28T10:55:04.220Z,6.83
2022-09-28T10:57:37.719Z,6.20
2022-09-28T11:00:08.016Z,6.97
2022-09-28T11:02:37.713Z,6.90
2022-09-28T11:05:07.576Z,6.73
2022-09-28T11:07:46.442Z,5.93
2022-09-28T11:10:21.921Z,6.13
2022-09-28T11:12:51.903Z,5.67
2022-09-28T11:15:22.727Z,5.83
2022-09-28T11:17:50.555Z,5.80
2022-09-28T11:20:35.965Z,5.50
2022-09-28T11:23:19.256Z,5.83
2022-09-28T11:25:57.907Z,6.07
2022-09-28T11:28:31.489Z,5.80
2022-09-28T11:31:00.287Z,6.57
2022-09-28T11:33:33.516Z,6.30
2022-09-28T11:36:21.305Z,6.00
2022-09-28T11:39:00.312Z,7.37
2022-09-28T11:41:43.330Z,6.83
2022-09-28T11:44:36.247Z,6.00
2022-09-28T11:47:18.404Z,3.60
2022-09-28T11:49:52.313Z,3.47
2022-09-28T11:52:27.477Z,4.00
2022-09-28T11:55:00.892Z,5.30
2022-09-28T11:57:36.342Z,4.97
2022-09-28T12:00:09.983Z,4.67
2022-09-28T12:02:43.673Z,5.13
2022-09-28T12:05:20.890Z,5.23
2022-09-28T12:07:55.231Z,5.87
2022-09-28T12:10:33.032Z,5.63
2022-09-28T12:13:04.887Z,5.40
2022-09-28T12:16:11.521Z,6.37
2022-09-28T12:18:42.729Z,5.00
2022-09-28T12:21:27.812Z,5.20
2022-09-28T12:24:01.789Z,5.10
2022-09-28T12:26:37.989Z,5.27
2022-09-28T12:29:12.930Z,5.43
2022-09-28T12:31:56.472Z,4.73
2022-09-28T12:34:24.334Z,5.37
2022-09-28T12:37:09.389Z,4.90
2022-09-28T12:40:03.562Z,4.87
2022-09-28T12:42:55.506Z,6.30
2022-09-28T12:45:42.869Z,5.70
2022-09-28T12:48:37.038Z,4.93
2022-09-28T12:51:17.478Z,5.97
2022-09-28T12:54:01.734Z,6.43
2022-09-28T12:56:37.895Z,5.90
2022-09-28T12:59:16.272Z,6.10
2022-09-28T13:02:28.625Z,6.20
2022-09-28T13:05:20.651Z,5.20
2022-09-28T13:07:55.943Z,6.77
2022-09-28T13:10:32.710Z,6.70
2022-09-28T13:13:21.756Z,6.97
2022-09-28T13:15:55.788Z,7.33
2022-09-28T13:18:30.261Z,7.57
2022-09-28T13:21:12.191Z,7.60
2022-09-28T13:23:43.699Z,7.87
2022-09-28T13:26:25.260Z,7.47
2022-09-28T13:28:57.976Z,7.43
2022-09-28T13:31:32.459Z,6.73
2022-09-28T13:34:04.530Z,6.70
2022-09-28T13:36:39.524Z,6.90
2022-09-28T13:39:36.523Z,6.23
2022-09-28T13:42:05.773Z,5.93
2022-09-28T13:44:59.478Z,6.83
2022-09-28T13:47:53.786Z,7.20
2022-09-28T13:50:34.367Z,5.70
2022-09-28T13:53:12.836Z,5.47
2022-09-28T13:55:54.774Z,6.30
2022-09-28T13:58:26.642Z,5.27
2022-09-28T14:01:00.724Z,5.30
2022-09-28T14:03:43.261Z,5.20
2022-09-28T14:06:23.640Z,4.40
2022-09-28T14:09:24.889Z,3.87
2022-09-28T14:12:01.549Z,4.33
2022-09-28T14:14:48.541Z,3.40
2022-09-28T14:17:59.075Z,4.67
2022-09-28T14:20:31.396Z,4.63
2022-09-28T14:23:44.326Z,3.90
2022-09-28T14:26:43.989Z,4.33
2022-09-28T14:29:36.181Z,3.70
2022-09-28T14:32:06.891Z,3.17
2022-09-28T14:34:37.718Z,4.37
2022-09-28T14:37:37.915Z,4.27
2022-09-28T14:40:34.866Z,3.97
2022-09-28T14:43:27.295Z,4.27
2022-09-28T14:46:30.413Z,4.47
2022-09-28T14:49:01.752Z,4.40
2022-09-28T14:52:07.369Z,4.43
2022-09-28T14:54:43.125Z,5.03
2022-09-28T14:57:17.923Z,5.40
2022-09-28T14:59:48.351Z,5.90
2022-09-28T15:02:23.067Z,6.20
2022-09-28T15:04:54.962Z,5.60
2022-09-28T15:07:25.367Z,6.73
2022-09-28T15:09:54.354Z,5.97
2022-09-28T15:12:25.388Z,6.67
2022-09-28T15:14:57.359Z,8.13
2022-09-28T15:17:28.299Z,7.30
2022-09-28T15:20:23.268Z,7.17
2022-09-28T15:22:56.593Z,8.40
2022-09-28T15:25:27.819Z,8.27
2022-09-28T15:27:57.965Z,8.10
2022-09-28T15:30:29.450Z,8.40
2022-09-28T15:33:18.824Z,8.37
2022-09-28T15:35:48.107Z,7.57
2022-09-28T15:38:18.190Z,8.03
2022-09-28T15:40:47.618Z,8.07
2022-09-28T15:43:26.904Z,8.50
2022-09-28T15:46:03.443Z,8.50
2022-09-28T15:48:37.719Z,8.60
2022-09-28T15:51:10.904Z,8.33
2022-09-28T15:53:44.145Z,7.80
2022-09-28T15:56:12.359Z,8.50
2022-09-28T15:58:40.864Z,7.20
2022-09-28T16:01:27.714Z,8.50
2022-09-28T16:03:55.738Z,8.50
2022-09-28T16:06:24.169Z,8.07
2022-09-28T16:08:51.883Z,6.70
2022-09-28T16:11:24.205Z,9.33
2022-09-28T16:14:01.847Z,9.53
2022-09-28T16:16:35.137Z,8.47
2022-09-28T16:19:04.181Z,7.70
2022-09-28T16:21:44.519Z,6.50
2022-09-28T16:24:22.151Z,7.20
2022-09-28T16:26:56.307Z,10.73
2022-09-28T16:29:35.742Z,10.60
2022-09-28T16:32:38.403Z,9.83
2022-09-28T16:35:19.622Z,8.30
2022-09-28T16:37:49.223Z,8.40
2022-09-28T16:40:17.176Z,10.00
2022-09-28T16:42:49.098Z,9.07
2022-09-28T16:45:20.801Z,9.70
2022-09-28T16:47:52.337Z,10.30
2022-09-28T16:50:21.329Z,9.33
2022-09-28T16:53:09.270Z,9.40
2022-09-28T16:55:41.183Z,10.30
2022-09-28T16:58:09.758Z,11.43
2022-09-28T17:00:37.579Z,10.20
2022-09-28T17:03:14.171Z,10.90
2022-09-28T17:05:42.193Z,10.40
2022-09-28T17:08:14.701Z,9.77
2022-09-28T17:11:09.858Z,9.03
2022-09-28T17:13:35.253Z,9.70
2022-09-28T17:16:06.273Z,9.97
2022-09-28T17:18:37.500Z,9.53
2022-09-28T17:21:06.595Z,10.10
2022-09-28T17:23:34.567Z,10.53
2022-09-28T17:26:03.031Z,9.83
2022-09-28T17:28:33.781Z,10.30
2022-09-28T17:31:01.631Z,10.53
2022-09-28T17:33:29.757Z,10.23
2022-09-28T17:36:01.490Z,11.70
2022-09-28T17:38:29.409Z,11.73
2022-09-28T17:40:57.283Z,10.47
2022-09-28T17:43:25.113Z,11.57
2022-09-28T17:45:53.006Z,12.37
2022-09-28T17:48:22.857Z,12.00
2022-09-28T17:50:51.230Z,12.83
2022-09-28T17:53:20.347Z,12.50
2022-09-28T17:55:48.106Z,13.97
2022-09-28T17:58:18.649Z,15.33
2022-09-28T18:00:47.801Z,13.40
2022-09-28T18:03:18.385Z,15.43
2022-09-28T18:05:48.267Z,14.47
2022-09-28T18:08:19.473Z,15.63
2022-09-28T18:10:48.618Z,19.40
2022-09-28T18:13:17.403Z,15.93
2022-09-28T18:15:45.166Z,15.43
2022-09-28T18:18:12.986Z,14.97
2022-09-28T18:20:41.929Z,13.87
2022-09-28T18:23:09.588Z,13.80
2022-09-28T18:25:40.773Z,13.20
2022-09-28T18:28:10.090Z,14.53
2022-09-28T18:30:40.705Z,14.50
2022-09-28T18:33:09.341Z,14.27
2022-09-28T18:35:37.837Z,15.07
2022-09-28T18:38:06.668Z,15.30
2022-09-28T18:40:34.815Z,14.07
2022-09-28T18:43:02.731Z,14.03
2022-09-28T18:45:31.875Z,13.17
2022-09-28T18:47:59.669Z,12.20
2022-09-28T18:50:27.475Z,11.67
2022-09-28T18:53:11.261Z,13.60
2022-09-28T18:55:39.858Z,14.23
2022-09-28T18:58:08.215Z,13.60
2022-09-28T19:00:38.932Z,12.27
2022-09-28T19:03:07.072Z,11.50
2022-09-28T19:05:35.075Z,11.50
2022-09-28T19:08:03.351Z,11.07
2022-09-28T19:10:31.219Z,12.13
2022-09-28T19:12:58.857Z,11.67
2022-09-28T19:15:26.771Z,11.63
2022-09-28T19:17:57.069Z,11.83
2022-09-28T19:20:24.742Z,11.10
2022-09-28T19:22:52.428Z,11.50
2022-09-28T19:25:20.099Z,12.87
2022-09-28T19:27:48.790Z,12.10
2022-09-28T19:30:16.595Z,11.60
2022-09-28T19:32:44.511Z,12.10
2022-09-28T19:35:13.670Z,12.67
2022-09-28T19:37:42.215Z,12.60
2022-09-28T19:40:10.456Z,11.87
2022-09-28T19:42:39.614Z,12.80
2022-09-28T19:45:10.901Z,11.50
2022-09-28T19:47:39.025Z,12.80
2022-09-28T19:50:07.555Z,12.83
2022-09-28T19:52:36.679Z,12.30
2022-09-28T19:55:04.465Z,13.00
2022-09-28T19:57:33.652Z,12.40
2022-09-28T20:00:03.545Z,11.93
2022-09-28T20:02:31.744Z,11.63
2022-09-28T20:04:59.609Z,12.37
2022-09-28T20:07:27.502Z,11.53
2022-09-28T20:09:56.582Z,12.60
2022-09-28T20:12:24.335Z,11.73
2022-09-28T20:14:52.083Z,11.90
2022-09-28T20:17:21.677Z,11.60
2022-09-28T20:19:51.708Z,11.37
2022-09-28T20:22:20.082Z,11.03
2022-09-28T20:24:47.993Z,11.00
2022-09-28T20:27:17.128Z,11.00
2022-09-28T20:29:44.809Z,11.83
2022-09-28T20:32:12.583Z,11.10
2022-09-28T20:34:40.373Z,10.40
2022-09-28T20:37:08.112Z,11.13
2022-09-28T20:39:35.924Z,10.47
2022-09-28T20:42:03.707Z,11.50
2022-09-28T20:44:32.804Z,10.27
2022-09-28T20:47:01.117Z,10.13
2022-09-28T20:49:29.031Z,10.67
2022-09-28T20:51:56.933Z,10.03
2022-09-28T20:54:25.572Z,10.50
2022-09-28T20:56:53.484Z,11.47
2022-09-28T20:59:22.946Z,9.73
2022-09-28T21:01:52.335Z,9.90
2022-09-28T21:04:20.570Z,10.30
2022-09-28T21:06:48.612Z,9.40
2022-09-28T21:09:16.404Z,9.50
2022-09-28T21:11:44.111Z,10.23
2022-09-28T21:14:11.759Z,10.43
2022-09-28T21:16:39.589Z,9.20
2022-09-28T21:19:08.635Z,10.03
2022-09-28T21:21:36.354Z,9.97
2022-09-28T21:24:04.441Z,10.53
2022-09-28T21:26:33.026Z,9.90
2022-09-28T21:29:02.838Z,10.20
2022-09-28T21:31:32.566Z,10.30
2022-09-28T21:34:01.072Z,9.80
2022-09-28T21:36:30.215Z,10.37
2022-09-28T21:38:58.329Z,10.70
2022-09-28T21:41:26.739Z,10.43
2022-09-28T21:43:54.516Z,10.30
2022-09-28T21:46:22.555Z,10.03
2022-09-28T21:48:53.370Z,10.83
2022-09-28T21:51:22.026Z,10.80
2022-09-28T21:53:51.197Z,9.73
2022-09-28T21:56:18.895Z,10.43
2022-09-28T21:58:47.086Z,11.43
2022-09-28T22:01:16.778Z,10.03
2022-09-28T22:03:46.689Z,10.73
2022-09-28T22:06:15.527Z,11.00
2022-09-28T22:08:43.566Z,10.80
2022-09-28T22:11:14.800Z,10.50
2022-09-28T22:13:44.656Z,10.70
2022-09-28T22:16:13.327Z,11.90
2022-09-28T22:18:41.732Z,10.80
2022-09-28T22:21:13.624Z,11.43
2022-09-28T22:23:42.095Z,11.33
2022-09-28T22:26:13.260Z,10.77
2022-09-28T22:28:46.288Z,11.17
2022-09-28T22:31:14.927Z,10.87
2022-09-28T22:33:42.868Z,12.00
2022-09-28T22:36:10.666Z,12.83
2022-09-28T22:38:39.429Z,11.50
2022-09-28T22:41:07.311Z,12.40
2022-09-28T22:43:36.635Z,13.23
2022-09-28T22:46:06.011Z,12.73
2022-09-28T22:48:34.754Z,13.07
2022-09-28T22:51:03.361Z,12.77
2022-09-28T22:53:31.434Z,12.63
2022-09-28T22:56:01.426Z,11.80
2022-09-28T22:58:29.199Z,12.43
2022-09-28T23:00:58.349Z,12.70
2022-09-28T23:03:25.977Z,12.17
2022-09-28T23:05:54.294Z,13.57
2022-09-28T23:08:22.180Z,12.20
2022-09-28T23:10:50.260Z,13.43
2022-09-28T23:13:17.989Z,12.23
2022-09-28T23:15:55.045Z,12.67
2022-09-28T23:18:24.292Z,13.60
2022-09-28T23:20:55.844Z,12.90
2022-09-28T23:23:23.984Z,12.67
2022-09-28T23:25:51.858Z,14.10
2022-09-28T23:28:20.054Z,14.10
2022-09-28T23:30:48.261Z,13.70
2022-09-28T23:33:16.693Z,14.37
2022-09-28T23:35:46.079Z,12.63
2022-09-28T23:38:14.960Z,12.57
2022-09-28T23:40:42.800Z,13.13
2022-09-28T23:43:10.551Z,12.77
2022-09-28T23:45:38.205Z,12.83
2022-09-28T23:48:06.284Z,13.67
2022-09-28T23:50:34.089Z,13.27
2022-09-28T23:53:03.215Z,12.70
2022-09-28T23:55:30.896Z,12.83
2022-09-28T23:57:58.999Z,13.10
